UMU001 ZSHC-ZSCN
Flight info
| Callsign | UMU001 |
|---|---|
| Flight time | 1h 21m |
| Altitude | 32100 |
| Route | NIVIK W135 GOSRO W546 OREVO W164 VILID V65 IKUBA W50 XSH W105 LAPEN |
| Aircraft | A319/M-SDE2E3FGILRWXY/LB2 |
Departure
| Time | 2026-04-16 03:25 |
|---|---|
| Airport | Hangzhou Xiaoshan International Airport (ZSHC) |
Arrival
| Time | 2026-04-16 04:47 |
|---|---|
| Airport | Nanchang Changbei International Airport (ZSCN) |
| Time | Latitude | Longitude | Altitude | Speed | Heading |
|---|---|---|---|---|---|
| 2026-04-16 03:09 | 30.23526 | 120.41078 | 28 ft | 0 kts | 153° |
| 2026-04-16 03:20 | 30.23535 | 120.41073 | 29 ft | 2 kts | 153° |
| 2026-04-16 03:20 | 30.23548 | 120.41065 | 29 ft | 2 kts | 153° |
| 2026-04-16 03:20 | 30.23561 | 120.41058 | 29 ft | 2 kts | 153° |
| 2026-04-16 03:21 | 30.23575 | 120.41050 | 29 ft | 2 kts | 153° |
| 2026-04-16 03:21 | 30.23589 | 120.41045 | 29 ft | 2 kts | 175° |
| 2026-04-16 03:21 | 30.23604 | 120.41045 | 29 ft | 2 kts | 193° |
| 2026-04-16 03:21 | 30.23618 | 120.41052 | 29 ft | 2 kts | 212° |
| 2026-04-16 03:22 | 30.23630 | 120.41062 | 29 ft | 2 kts | 230° |
| 2026-04-16 03:22 | 30.23635 | 120.41071 | 29 ft | 1 kts | 242° |
| 2026-04-16 03:22 | 30.23637 | 120.41077 | 29 ft | 0 kts | 243° |
| 2026-04-16 03:23 | 30.23634 | 120.41069 | 28 ft | 2 kts | 243° |
| 2026-04-16 03:23 | 30.23621 | 120.41039 | 28 ft | 5 kts | 243° |
| 2026-04-16 03:23 | 30.23610 | 120.40984 | 28 ft | 8 kts | 282° |
| 2026-04-16 03:24 | 30.23658 | 120.40939 | 29 ft | 9 kts | 334° |
| 2026-04-16 03:24 | 30.23724 | 120.40901 | 28 ft | 11 kts | 333° |
| 2026-04-16 03:24 | 30.23795 | 120.40860 | 29 ft | 10 kts | 332° |
| 2026-04-16 03:24 | 30.23845 | 120.40888 | 29 ft | 9 kts | 58° |
| 2026-04-16 03:25 | 30.23940 | 120.41102 | 29 ft | 65 kts | 62° |
| 2026-04-16 03:25 | 30.24257 | 120.41814 | 29 ft | 132 kts | 63° |
| 2026-04-16 03:25 | 30.24762 | 120.42954 | 159 ft | 173 kts | 61° |
| 2026-04-16 03:25 | 30.25307 | 120.44212 | 777 ft | 177 kts | 61° |
| 2026-04-16 03:26 | 30.25855 | 120.45456 | 1517 ft | 176 kts | 60° |
| 2026-04-16 03:26 | 30.26418 | 120.46718 | 2118 ft | 184 kts | 60° |
| 2026-04-16 03:26 | 30.27040 | 120.48109 | 2592 ft | 201 kts | 60° |
| 2026-04-16 03:26 | 30.27707 | 120.49608 | 3067 ft | 218 kts | 60° |
| 2026-04-16 03:27 | 30.28427 | 120.51226 | 3661 ft | 231 kts | 60° |
| 2026-04-16 03:27 | 30.29164 | 120.52900 | 4433 ft | 235 kts | 60° |
| 2026-04-16 03:27 | 30.29900 | 120.54569 | 5232 ft | 238 kts | 60° |
| 2026-04-16 03:27 | 30.30648 | 120.56266 | 6031 ft | 240 kts | 60° |
| 2026-04-16 03:28 | 30.31404 | 120.57980 | 6837 ft | 243 kts | 59° |
| 2026-04-16 03:28 | 30.32170 | 120.59698 | 7637 ft | 244 kts | 56° |
| 2026-04-16 03:28 | 30.33266 | 120.61132 | 8407 ft | 239 kts | 28° |
| 2026-04-16 03:28 | 30.34783 | 120.61790 | 9201 ft | 233 kts | 1° |
| 2026-04-16 03:29 | 30.36358 | 120.61620 | 9930 ft | 230 kts | 337° |
| 2026-04-16 03:29 | 30.37724 | 120.60688 | 10679 ft | 228 kts | 313° |
| 2026-04-16 03:29 | 30.38607 | 120.59199 | 11459 ft | 228 kts | 290° |
| 2026-04-16 03:29 | 30.38874 | 120.57430 | 12201 ft | 230 kts | 268° |
| 2026-04-16 03:30 | 30.38499 | 120.55622 | 12902 ft | 237 kts | 250° |
| 2026-04-16 03:30 | 30.37779 | 120.53904 | 13577 ft | 241 kts | 246° |
| 2026-04-16 03:30 | 30.36992 | 120.52201 | 14260 ft | 243 kts | 246° |
| 2026-04-16 03:30 | 30.36195 | 120.50468 | 14974 ft | 244 kts | 246° |
| 2026-04-16 03:31 | 30.35421 | 120.48760 | 15695 ft | 244 kts | 246° |
| 2026-04-16 03:31 | 30.34642 | 120.47028 | 16411 ft | 243 kts | 246° |
| 2026-04-16 03:31 | 30.33858 | 120.45263 | 16889 ft | 254 kts | 246° |
| 2026-04-16 03:31 | 30.33042 | 120.43413 | 17250 ft | 267 kts | 246° |
| 2026-04-16 03:32 | 30.32181 | 120.41467 | 17873 ft | 270 kts | 246° |
| 2026-04-16 03:32 | 30.31330 | 120.39550 | 18571 ft | 271 kts | 245° |
| 2026-04-16 03:34 | 30.28894 | 120.25407 | 22961 ft | 299 kts | 303° |
| 2026-04-16 03:34 | 30.30558 | 120.23817 | 23221 ft | 326 kts | 322° |
| 2026-04-16 03:34 | 30.32615 | 120.22591 | 23479 ft | 342 kts | 326° |
| 2026-04-16 03:34 | 30.34842 | 120.21429 | 23718 ft | 356 kts | 328° |
| 2026-04-16 03:35 | 30.37150 | 120.20270 | 23946 ft | 368 kts | 328° |
| 2026-04-16 03:35 | 30.39560 | 120.19067 | 24160 ft | 380 kts | 328° |
| 2026-04-16 03:35 | 30.42021 | 120.17836 | 24366 ft | 391 kts | 328° |
| 2026-04-16 03:35 | 30.44553 | 120.16569 | 24562 ft | 401 kts | 328° |
| 2026-04-16 03:36 | 30.47065 | 120.15168 | 24745 ft | 406 kts | 324° |
| 2026-04-16 03:36 | 30.49531 | 120.13527 | 24924 ft | 411 kts | 320° |
| 2026-04-16 03:36 | 30.51913 | 120.11661 | 25094 ft | 417 kts | 317° |
| 2026-04-16 03:36 | 30.54279 | 120.09680 | 25286 ft | 423 kts | 316° |
| 2026-04-16 03:37 | 30.56675 | 120.07652 | 25589 ft | 427 kts | 316° |
| 2026-04-16 03:37 | 30.59078 | 120.05614 | 25979 ft | 429 kts | 316° |
| 2026-04-16 03:37 | 30.61491 | 120.03567 | 26378 ft | 430 kts | 316° |
| 2026-04-16 03:37 | 30.63911 | 120.01516 | 26738 ft | 432 kts | 316° |
| 2026-04-16 03:38 | 30.66329 | 119.99464 | 27093 ft | 433 kts | 316° |
| 2026-04-16 03:38 | 30.68755 | 119.97405 | 27407 ft | 435 kts | 316° |
| 2026-04-16 03:38 | 30.71217 | 119.95314 | 27786 ft | 435 kts | 316° |
| 2026-04-16 03:38 | 30.73639 | 119.93258 | 28263 ft | 432 kts | 316° |
| 2026-04-16 03:39 | 30.76068 | 119.91196 | 28746 ft | 429 kts | 315° |
| 2026-04-16 03:39 | 30.78449 | 119.89166 | 29204 ft | 427 kts | 315° |
| 2026-04-16 03:39 | 30.80847 | 119.87114 | 29649 ft | 425 kts | 315° |
| 2026-04-16 03:39 | 30.83210 | 119.85088 | 30069 ft | 423 kts | 314° |
| 2026-04-16 03:40 | 30.85589 | 119.83048 | 30452 ft | 422 kts | 314° |
| 2026-04-16 03:40 | 30.87926 | 119.81038 | 30777 ft | 423 kts | 314° |
| 2026-04-16 03:40 | 30.90289 | 119.79002 | 31028 ft | 424 kts | 314° |
| 2026-04-16 03:40 | 30.92678 | 119.76946 | 31291 ft | 425 kts | 313° |
| 2026-04-16 03:41 | 30.95042 | 119.74907 | 31533 ft | 427 kts | 313° |
| 2026-04-16 03:41 | 30.97425 | 119.72852 | 31771 ft | 428 kts | 313° |
| 2026-04-16 03:41 | 30.99839 | 119.70767 | 31909 ft | 430 kts | 313° |
| 2026-04-16 03:42 | 31.04630 | 119.66629 | 31915 ft | 429 kts | 313° |
| 2026-04-16 03:42 | 31.09431 | 119.62476 | 31921 ft | 430 kts | 313° |
| 2026-04-16 03:43 | 31.14223 | 119.58325 | 31921 ft | 430 kts | 313° |
| 2026-04-16 03:43 | 31.19011 | 119.54176 | 31925 ft | 429 kts | 314° |
| 2026-04-16 03:44 | 31.23824 | 119.50000 | 31929 ft | 430 kts | 314° |
| 2026-04-16 03:44 | 31.28616 | 119.45843 | 31923 ft | 431 kts | 314° |
| 2026-04-16 03:45 | 31.33407 | 119.41679 | 31936 ft | 432 kts | 314° |
| 2026-04-16 03:45 | 31.38246 | 119.37461 | 31929 ft | 432 kts | 314° |
| 2026-04-16 03:46 | 31.43023 | 119.33296 | 31926 ft | 431 kts | 314° |
| 2026-04-16 03:46 | 31.47831 | 119.29097 | 31934 ft | 431 kts | 314° |
| 2026-04-16 03:47 | 31.52643 | 119.24883 | 31931 ft | 430 kts | 314° |
| 2026-04-16 03:47 | 31.56706 | 119.20059 | 31910 ft | 410 kts | 295° |
| 2026-04-16 03:48 | 31.59532 | 119.14317 | 31928 ft | 409 kts | 293° |
| 2026-04-16 03:48 | 31.62340 | 119.08523 | 31932 ft | 410 kts | 293° |
| 2026-04-16 03:49 | 31.64844 | 119.02534 | 31926 ft | 405 kts | 286° |
| 2026-04-16 03:49 | 31.66477 | 118.96310 | 31933 ft | 401 kts | 278° |
| 2026-04-16 03:50 | 31.67273 | 118.89856 | 31933 ft | 398 kts | 271° |
| 2026-04-16 03:50 | 31.67235 | 118.83407 | 31932 ft | 397 kts | 265° |
| 2026-04-16 03:51 | 31.66928 | 118.76904 | 31938 ft | 399 kts | 265° |
| 2026-04-16 03:51 | 31.66677 | 118.70449 | 31925 ft | 400 kts | 268° |
| 2026-04-16 03:52 | 31.66678 | 118.63923 | 31938 ft | 400 kts | 268° |
| 2026-04-16 03:52 | 31.66684 | 118.57404 | 31933 ft | 401 kts | 268° |
| 2026-04-16 03:53 | 31.66687 | 118.50863 | 31933 ft | 402 kts | 268° |
| 2026-04-16 03:53 | 31.66687 | 118.44340 | 31943 ft | 403 kts | 268° |
| 2026-04-16 03:54 | 31.66686 | 118.37792 | 31937 ft | 404 kts | 268° |
| 2026-04-16 03:54 | 31.66681 | 118.31218 | 31937 ft | 404 kts | 268° |
| 2026-04-16 03:55 | 31.66671 | 118.24611 | 31925 ft | 405 kts | 268° |
| 2026-04-16 03:55 | 31.66588 | 118.18056 | 31923 ft | 404 kts | 265° |
| 2026-04-16 03:56 | 31.66072 | 118.11517 | 31918 ft | 405 kts | 262° |
| 2026-04-16 03:56 | 31.65453 | 118.04962 | 31932 ft | 405 kts | 263° |
| 2026-04-16 03:57 | 31.64822 | 117.98375 | 31923 ft | 406 kts | 263° |
| 2026-04-16 03:57 | 31.64189 | 117.91804 | 31933 ft | 407 kts | 263° |
| 2026-04-16 03:58 | 31.63551 | 117.85232 | 31917 ft | 407 kts | 263° |
| 2026-04-16 03:58 | 31.62943 | 117.78989 | 31934 ft | 409 kts | 263° |
| 2026-04-16 03:59 | 31.62295 | 117.72375 | 31920 ft | 408 kts | 263° |
| 2026-04-16 03:59 | 31.61641 | 117.65768 | 31941 ft | 408 kts | 263° |
| 2026-04-16 04:00 | 31.60974 | 117.59180 | 31935 ft | 408 kts | 262° |
| 2026-04-16 04:00 | 31.59953 | 117.52672 | 31924 ft | 408 kts | 258° |
| 2026-04-16 04:01 | 31.58800 | 117.46144 | 31933 ft | 410 kts | 258° |
| 2026-04-16 04:01 | 31.57637 | 117.39615 | 31934 ft | 410 kts | 258° |
| 2026-04-16 04:02 | 31.56162 | 117.33167 | 31931 ft | 411 kts | 252° |
| 2026-04-16 04:02 | 31.54151 | 117.26894 | 31928 ft | 412 kts | 248° |
| 2026-04-16 04:03 | 31.51647 | 117.20919 | 31927 ft | 413 kts | 243° |
| 2026-04-16 04:03 | 31.48770 | 117.15083 | 31930 ft | 413 kts | 242° |
| 2026-04-16 04:04 | 31.45886 | 117.09274 | 31933 ft | 414 kts | 242° |
| 2026-04-16 04:04 | 31.42995 | 117.03473 | 31945 ft | 413 kts | 242° |
| 2026-04-16 04:05 | 31.40101 | 116.97681 | 31941 ft | 414 kts | 242° |
| 2026-04-16 04:05 | 31.37183 | 116.91852 | 31934 ft | 414 kts | 242° |
| 2026-04-16 04:06 | 31.34286 | 116.86072 | 31948 ft | 415 kts | 242° |
| 2026-04-16 04:06 | 31.31364 | 116.80255 | 31933 ft | 415 kts | 242° |
| 2026-04-16 04:07 | 31.28460 | 116.74479 | 31931 ft | 415 kts | 242° |
| 2026-04-16 04:07 | 31.24079 | 116.65780 | 31936 ft | 415 kts | 242° |
| 2026-04-16 04:08 | 31.21141 | 116.59962 | 31947 ft | 414 kts | 242° |
| 2026-04-16 04:08 | 31.18224 | 116.54192 | 31965 ft | 415 kts | 242° |
| 2026-04-16 04:09 | 31.15302 | 116.48422 | 31963 ft | 415 kts | 242° |
| 2026-04-16 04:09 | 31.12357 | 116.42612 | 31974 ft | 415 kts | 242° |
| 2026-04-16 04:10 | 31.09420 | 116.36822 | 31974 ft | 415 kts | 242° |
| 2026-04-16 04:10 | 31.06473 | 116.31029 | 31978 ft | 416 kts | 242° |
| 2026-04-16 04:11 | 31.03538 | 116.25267 | 31973 ft | 416 kts | 242° |
| 2026-04-16 04:11 | 31.00569 | 116.19445 | 31974 ft | 417 kts | 242° |
| 2026-04-16 04:12 | 30.97614 | 116.13660 | 31983 ft | 417 kts | 242° |
| 2026-04-16 04:12 | 30.94652 | 116.07867 | 31981 ft | 418 kts | 242° |
| 2026-04-16 04:13 | 30.91671 | 116.02044 | 31966 ft | 418 kts | 242° |
| 2026-04-16 04:13 | 30.88700 | 115.96255 | 31965 ft | 419 kts | 242° |
| 2026-04-16 04:14 | 30.85634 | 115.90490 | 31969 ft | 420 kts | 239° |
| 2026-04-16 04:14 | 30.82159 | 115.85018 | 31957 ft | 421 kts | 236° |
| 2026-04-16 04:15 | 30.78635 | 115.79661 | 31941 ft | 420 kts | 236° |
| 2026-04-16 04:15 | 30.75079 | 115.74272 | 31940 ft | 420 kts | 236° |
| 2026-04-16 04:16 | 30.71513 | 115.68870 | 31932 ft | 420 kts | 236° |
| 2026-04-16 04:16 | 30.67972 | 115.63515 | 31927 ft | 420 kts | 236° |
| 2026-04-16 04:17 | 30.64393 | 115.58115 | 31924 ft | 420 kts | 236° |
| 2026-04-16 04:17 | 30.60856 | 115.52780 | 31930 ft | 420 kts | 236° |
| 2026-04-16 04:18 | 30.57280 | 115.47394 | 31921 ft | 420 kts | 236° |
| 2026-04-16 04:18 | 30.53716 | 115.42032 | 31923 ft | 420 kts | 236° |
| 2026-04-16 04:19 | 30.51941 | 115.39368 | 31694 ft | 420 kts | 236° |
| 2026-04-16 04:19 | 30.50153 | 115.36686 | 31458 ft | 419 kts | 236° |
| 2026-04-16 04:19 | 30.48373 | 115.34038 | 31208 ft | 418 kts | 234° |
| 2026-04-16 04:19 | 30.46225 | 115.31731 | 30944 ft | 426 kts | 220° |
| 2026-04-16 04:20 | 30.43573 | 115.30137 | 30694 ft | 436 kts | 205° |
| 2026-04-16 04:20 | 30.40616 | 115.29377 | 30450 ft | 449 kts | 191° |
| 2026-04-16 04:20 | 30.37451 | 115.29549 | 30206 ft | 465 kts | 175° |
| 2026-04-16 04:20 | 30.34314 | 115.30669 | 29966 ft | 474 kts | 165° |
| 2026-04-16 04:21 | 30.31229 | 115.32040 | 29699 ft | 476 kts | 164° |
| 2026-04-16 04:21 | 30.28147 | 115.33437 | 29431 ft | 476 kts | 164° |
| 2026-04-16 04:21 | 30.25061 | 115.34832 | 29178 ft | 476 kts | 164° |
| 2026-04-16 04:21 | 30.21955 | 115.36225 | 28912 ft | 476 kts | 164° |
| 2026-04-16 04:22 | 30.18891 | 115.37593 | 28641 ft | 476 kts | 164° |
| 2026-04-16 04:22 | 30.15815 | 115.38960 | 28387 ft | 476 kts | 164° |
| 2026-04-16 04:22 | 30.12697 | 115.40342 | 28121 ft | 475 kts | 165° |
| 2026-04-16 04:22 | 30.09637 | 115.41695 | 27864 ft | 476 kts | 164° |
| 2026-04-16 04:23 | 30.06527 | 115.43069 | 27602 ft | 477 kts | 164° |
| 2026-04-16 04:23 | 30.03423 | 115.44439 | 27343 ft | 476 kts | 164° |
| 2026-04-16 04:23 | 30.00337 | 115.45801 | 27088 ft | 473 kts | 164° |
| 2026-04-16 04:23 | 29.97272 | 115.47154 | 26828 ft | 471 kts | 164° |
| 2026-04-16 04:24 | 29.94238 | 115.48492 | 26568 ft | 469 kts | 164° |
| 2026-04-16 04:24 | 29.91197 | 115.49832 | 26307 ft | 467 kts | 164° |
| 2026-04-16 04:24 | 29.88143 | 115.51175 | 26051 ft | 466 kts | 164° |
| 2026-04-16 04:24 | 29.85130 | 115.52501 | 25789 ft | 463 kts | 164° |
| 2026-04-16 04:25 | 29.82129 | 115.53820 | 25492 ft | 461 kts | 164° |
| 2026-04-16 04:25 | 29.79145 | 115.55130 | 25148 ft | 459 kts | 164° |
| 2026-04-16 04:25 | 29.76163 | 115.56439 | 24715 ft | 456 kts | 164° |
| 2026-04-16 04:25 | 29.73202 | 115.57737 | 24226 ft | 452 kts | 164° |
| 2026-04-16 04:26 | 29.70301 | 115.59007 | 23714 ft | 448 kts | 163° |
| 2026-04-16 04:26 | 29.67395 | 115.60280 | 23168 ft | 444 kts | 163° |
| 2026-04-16 04:26 | 29.64543 | 115.61530 | 22649 ft | 439 kts | 163° |
| 2026-04-16 04:26 | 29.61703 | 115.62772 | 22078 ft | 436 kts | 163° |
| 2026-04-16 04:27 | 29.58874 | 115.64010 | 21504 ft | 432 kts | 163° |
| 2026-04-16 04:27 | 29.56086 | 115.65231 | 20954 ft | 428 kts | 164° |
| 2026-04-16 04:27 | 29.53317 | 115.66443 | 20401 ft | 424 kts | 164° |
| 2026-04-16 04:27 | 29.50584 | 115.67640 | 19866 ft | 420 kts | 164° |
| 2026-04-16 04:28 | 29.47872 | 115.68826 | 19336 ft | 416 kts | 164° |
| 2026-04-16 04:28 | 29.45144 | 115.70018 | 18730 ft | 414 kts | 164° |
| 2026-04-16 04:28 | 29.42462 | 115.71189 | 18239 ft | 411 kts | 164° |
| 2026-04-16 04:28 | 29.39806 | 115.72351 | 17713 ft | 408 kts | 164° |
| 2026-04-16 04:29 | 29.37174 | 115.73497 | 17182 ft | 406 kts | 164° |
| 2026-04-16 04:29 | 29.34521 | 115.74653 | 16655 ft | 404 kts | 164° |
| 2026-04-16 04:29 | 29.31901 | 115.75680 | 16131 ft | 401 kts | 167° |
| 2026-04-16 04:29 | 29.29238 | 115.76623 | 15607 ft | 399 kts | 167° |
| 2026-04-16 04:30 | 29.26569 | 115.77559 | 15076 ft | 398 kts | 167° |
| 2026-04-16 04:30 | 29.23939 | 115.78481 | 14562 ft | 396 kts | 167° |
| 2026-04-16 04:30 | 29.21309 | 115.79401 | 14049 ft | 395 kts | 167° |
| 2026-04-16 04:30 | 29.18699 | 115.80312 | 13532 ft | 393 kts | 167° |
| 2026-04-16 04:31 | 29.16089 | 115.81221 | 13040 ft | 391 kts | 167° |
| 2026-04-16 04:31 | 29.13508 | 115.82120 | 12541 ft | 389 kts | 167° |
| 2026-04-16 04:31 | 29.10863 | 115.82774 | 11966 ft | 382 kts | 180° |
| 2026-04-16 04:31 | 29.08282 | 115.82509 | 11439 ft | 371 kts | 198° |
| 2026-04-16 04:32 | 29.05888 | 115.81491 | 11065 ft | 359 kts | 207° |
| 2026-04-16 04:32 | 29.03638 | 115.80379 | 10827 ft | 347 kts | 207° |
| 2026-04-16 04:32 | 29.01460 | 115.79299 | 10620 ft | 335 kts | 207° |
| 2026-04-16 04:32 | 28.99372 | 115.78275 | 10443 ft | 323 kts | 207° |
| 2026-04-16 04:33 | 28.97311 | 115.77274 | 10280 ft | 312 kts | 206° |
| 2026-04-16 04:33 | 28.95350 | 115.76328 | 10138 ft | 300 kts | 206° |
| 2026-04-16 04:33 | 28.93457 | 115.75420 | 9999 ft | 290 kts | 207° |
| 2026-04-16 04:33 | 28.91601 | 115.74527 | 9668 ft | 288 kts | 207° |
| 2026-04-16 04:34 | 28.89755 | 115.73637 | 9337 ft | 287 kts | 206° |
| 2026-04-16 04:34 | 28.87919 | 115.72752 | 9038 ft | 284 kts | 206° |
| 2026-04-16 04:34 | 28.86117 | 115.71884 | 8746 ft | 281 kts | 206° |
| 2026-04-16 04:34 | 28.84322 | 115.71020 | 8439 ft | 278 kts | 206° |
| 2026-04-16 04:35 | 28.82539 | 115.70164 | 8146 ft | 274 kts | 206° |
| 2026-04-16 04:35 | 28.80802 | 115.69329 | 7884 ft | 270 kts | 206° |
| 2026-04-16 04:35 | 28.79073 | 115.68484 | 7643 ft | 264 kts | 206° |
| 2026-04-16 04:35 | 28.77419 | 115.67670 | 7420 ft | 259 kts | 206° |
| 2026-04-16 04:36 | 28.75777 | 115.66856 | 7200 ft | 254 kts | 206° |
| 2026-04-16 04:36 | 28.74176 | 115.66054 | 6978 ft | 249 kts | 206° |
| 2026-04-16 04:36 | 28.72598 | 115.65253 | 6749 ft | 244 kts | 206° |
| 2026-04-16 04:36 | 28.71070 | 115.64477 | 6529 ft | 240 kts | 206° |
| 2026-04-16 04:37 | 28.69549 | 115.63699 | 6301 ft | 235 kts | 206° |
| 2026-04-16 04:37 | 28.68080 | 115.62942 | 6077 ft | 231 kts | 206° |
| 2026-04-16 04:37 | 28.66628 | 115.62191 | 5854 ft | 227 kts | 206° |
| 2026-04-16 04:37 | 28.65190 | 115.61438 | 5631 ft | 223 kts | 206° |
| 2026-04-16 04:38 | 28.63798 | 115.60703 | 5410 ft | 220 kts | 206° |
| 2026-04-16 04:38 | 28.62406 | 115.60010 | 5186 ft | 217 kts | 197° |
| 2026-04-16 04:38 | 28.60940 | 115.60073 | 4946 ft | 214 kts | 153° |
| 2026-04-16 04:38 | 28.59896 | 115.61211 | 4800 ft | 204 kts | 116° |
| 2026-04-16 04:39 | 28.59550 | 115.62717 | 4667 ft | 196 kts | 88° |
| 2026-04-16 04:39 | 28.59846 | 115.64199 | 4546 ft | 193 kts | 65° |
| 2026-04-16 04:39 | 28.60444 | 115.65585 | 4459 ft | 196 kts | 63° |
| 2026-04-16 04:39 | 28.61059 | 115.66988 | 4360 ft | 197 kts | 64° |
| 2026-04-16 04:40 | 28.61654 | 115.68389 | 4221 ft | 197 kts | 65° |
| 2026-04-16 04:40 | 28.62258 | 115.69852 | 4049 ft | 217 kts | 66° |
| 2026-04-16 04:40 | 28.62915 | 115.71474 | 3805 ft | 229 kts | 66° |
| 2026-04-16 04:40 | 28.63578 | 115.73126 | 3543 ft | 228 kts | 66° |
| 2026-04-16 04:41 | 28.64230 | 115.74758 | 3414 ft | 227 kts | 66° |
| 2026-04-16 04:41 | 28.64891 | 115.76418 | 3405 ft | 229 kts | 66° |
| 2026-04-16 04:41 | 28.65549 | 115.78064 | 3376 ft | 229 kts | 66° |
| 2026-04-16 04:41 | 28.66215 | 115.79703 | 3324 ft | 224 kts | 60° |
| 2026-04-16 04:42 | 28.67250 | 115.80922 | 3270 ft | 212 kts | 31° |
| 2026-04-16 04:42 | 28.68584 | 115.81693 | 3190 ft | 215 kts | 22° |
| 2026-04-16 04:42 | 28.69974 | 115.82315 | 3038 ft | 213 kts | 20° |
| 2026-04-16 04:42 | 28.71363 | 115.82931 | 2949 ft | 214 kts | 21° |
| 2026-04-16 04:43 | 28.72713 | 115.83562 | 2770 ft | 204 kts | 22° |
| 2026-04-16 04:43 | 28.73975 | 115.84173 | 2476 ft | 192 kts | 23° |
| 2026-04-16 04:43 | 28.75187 | 115.84766 | 2202 ft | 183 kts | 24° |
| 2026-04-16 04:43 | 28.76314 | 115.85317 | 1972 ft | 172 kts | 24° |
| 2026-04-16 04:44 | 28.77369 | 115.85832 | 1742 ft | 158 kts | 25° |
| 2026-04-16 04:44 | 28.78343 | 115.86306 | 1522 ft | 144 kts | 25° |
| 2026-04-16 04:44 | 28.79239 | 115.86742 | 1336 ft | 137 kts | 25° |
| 2026-04-16 04:44 | 28.80104 | 115.87163 | 1182 ft | 136 kts | 25° |
| 2026-04-16 04:45 | 28.80977 | 115.87588 | 1017 ft | 135 kts | 25° |
| 2026-04-16 04:45 | 28.81841 | 115.88007 | 847 ft | 135 kts | 24° |
| 2026-04-16 04:45 | 28.82710 | 115.88429 | 669 ft | 134 kts | 25° |
| 2026-04-16 04:45 | 28.83571 | 115.88842 | 440 ft | 134 kts | 24° |
| 2026-04-16 04:46 | 28.84436 | 115.89255 | 301 ft | 134 kts | 25° |
| 2026-04-16 04:46 | 28.85291 | 115.89677 | 163 ft | 134 kts | 25° |
| 2026-04-16 04:46 | 28.86059 | 115.90060 | 153 ft | 99 kts | 21° |
| 2026-04-16 04:46 | 28.86536 | 115.90286 | 153 ft | 50 kts | 23° |
| 2026-04-16 04:47 | 28.86736 | 115.90407 | 153 ft | 23 kts | 41° |
| 2026-04-16 04:47 | 28.86830 | 115.90529 | 153 ft | 17 kts | 53° |
| 2026-04-16 04:47 | 28.86847 | 115.90608 | 153 ft | 9 kts | 172° |
| 2026-04-16 04:47 | 28.86842 | 115.90609 | 153 ft | 1 kts | 162° |
| 2026-04-16 04:48 | 28.86802 | 115.90627 | 153 ft | 10 kts | 188° |
| 2026-04-16 04:48 | 28.86742 | 115.90675 | 153 ft | 15 kts | 110° |
| 2026-04-16 04:48 | 28.86697 | 115.90791 | 153 ft | 13 kts | 113° |
| 2026-04-16 04:48 | 28.86689 | 115.90889 | 153 ft | 11 kts | 87° |
| 2026-04-16 04:49 | 28.86691 | 115.90934 | 153 ft | 0 kts | 86° |
| 2026-04-16 04:49 | 28.86691 | 115.90933 | 153 ft | 1 kts | 86° |
| 2026-04-16 04:49 | 28.86689 | 115.90898 | 153 ft | 7 kts | 86° |
| 2026-04-16 04:49 | 28.86688 | 115.90869 | 152 ft | 1 kts | 87° |
| 2026-04-16 04:50 | 28.86688 | 115.90858 | 153 ft | 0 kts | 113° |
| 2026-04-16 04:50 | 28.86686 | 115.90862 | 153 ft | 0 kts | 137° |
| 2026-04-16 04:50 | 28.86667 | 115.90865 | 153 ft | 4 kts | 173° |
| 2026-04-16 04:50 | 28.86620 | 115.90871 | 153 ft | 9 kts | 175° |
| 2026-04-16 04:51 | 28.86545 | 115.90874 | 153 ft | 9 kts | 178° |
| 2026-04-16 04:51 | 28.86498 | 115.90891 | 153 ft | 5 kts | 105° |
| 2026-04-16 04:51 | 28.86499 | 115.90931 | 153 ft | 5 kts | 91° |
| 2026-04-16 04:51 | 28.86499 | 115.90949 | 153 ft | 0 kts | 88° |
| 2026-04-16 04:52 | 28.86500 | 115.90950 | 153 ft | 0 kts | 86° |